Main page
METAR-TAF:

METAR-TAF

Airports :

Kerry Airport

Killarney, Ireland

latitude: 52-10-51N, longitude: 9-31-26W, elevation: 34 m

Current weather observation

The report was made 9 hours and 16 minutes ago, at 18:00 UTC
Wind 4 kt from the South/Southwest, varying between South/Southeast and Southwest
Temperature 17°C
Humidity 82%
Pressure 1008 hPa
Visibility 10 km or more
Broken clouds at a height of 3300 ft

METAR: EIKY 251800Z 20004KT 160V230 9999 BKN033 17/14 Q1008

Time: 04:16 (03:16 UTC)

Forecast

The report was made 10 hours and 16 minutes ago, at 17:00 UTC
Forecast valid from 25 at 18 UTC to 26 at 03 UTC
Wind 9 kt from the South/Southwest
Visibility 10 km or more
Few clouds at a height of 1700 ft
Broken clouds at a height of 3000 ft

TAF: EIKY 251700Z 2518/2603 20009KT 9999 FEW017 BKN030

Weather observations and forecasts of more than 4000 airports (METAR and TAF reports).

The available stations are represented by yellow and red dots on the map.

Hover mouse over dot to see the name of the station.

Then click to see weather observations and forecasts.

To change the map : click on the green buttons with a black cross to zoom in, on the green button with a dash to zoom out, or on the green arrows for adjacent maps.


METAR-TAF: